Pagrindinis puslapis
METAR-TAF:

METAR-TAF

Oro uostai :

Stambulas Sabiha Gökçen, Turkija

platuma: 40-53-55N, ilguma: 029-18-33E, Aukštis: 95 m

Dabartinis oras

Ataskaita buvo paskelbta 38 minutes, ne 17:20 UTC
Vėjas 3 kt iš Pietų, svyruoja nuo Rytų/Pietryčių ir Pietvakarių
Temperatūra 11°C
Drėgmė 58%
Slėgis 1021 hPa
Matomumas 10 km arba daugiau
nėra debesų žemiau 1500 m ir nėra kamuolinių lietaus debesų

METAR: LTFJ 121720Z 17003KT 120V220 CAVOK 11/03 Q1021 NOSIG RMK RWY24 16005KT

Laikas: 20:58 (17:58 UTC)

Prognozė

Ataskaita buvo paskelbta 1 valandą ir 18 minutes, ne 16:40 UTC
Prognozė galioja nuo 12 metu 18 UTC su 13 metu 18 UTC
Vėjas 2 kt nuo kintamojo kryptimis
Matomumas 10 km arba daugiau
nėra debesų žemiau 1500 m ir nėra kamuolinių lietaus debesų
Laikinai
nuo 13 metu 08 UTC su 13 metu 12 UTC
Vėjas 12 kt iš Pietvakarių
Mažai debesys ne aukštis 3500 ft

TAF: LTFJ 121640Z 1218/1318 VRB02KT CAVOK TEMPO 1308/1312 22012KT FEW035

Orai ataskaitas ir orų prognozės (METAR, TAF).

turimą stotys yra geltonos ir raudonos taškus žemėlapyje.

Perkelti pele per norėdami pamatyti stoties vardą.

Tada spustelėkite, norėdami matyti oro stebėjimo ir prognozės.

Norėdami pakeisti žemėlapį: spustelėkite ant žalios mygtukų su juodo kryžiaus žemyn,; žalią mygtuką su brūkšneliu, jei norite nutolinti; arba žalių rodyklių gretimoms žemėlapius.


METAR-TAF: